Jerseyville, Illinois
Current Conditions -  °F | °C
As of 3:54 PM on Monday 20 Oct 2014 (Local Time) from KSET Reporting Station
Clear Clear  
Wind Chill: 72°   Ceiling: Unl
Heat Index: 72°   Visibility: 10mi
Dew Point: 44°   Wind: 10mph
Humidity: 37%   Direction: 300°WNW
Pressure: 29.94"   Gusts: NA
Location:  39.12°N, 90.33°W
Report Text: KSET 202054Z AUTO 30009KT 10SM CLR 22/07 A2994 RMK AO1 SLP136 T02220067 55005
Loading
Personal Weather Stations






























Interactive Weather Map
Tropical Storm Tracking
New forecast layout! Learn more

10-Day Weather Forecast

Advertisements
Track Severe Weather on mobile